createdAt,value
2022-11-06T00:00:16.725Z,38.42
2022-11-06T00:02:20.855Z,36.78
2022-11-06T00:04:23.215Z,35.58
2022-11-06T00:06:44.626Z,31.27
2022-11-06T00:08:47.123Z,34.15
2022-11-06T00:10:49.611Z,40.50
2022-11-06T00:12:51.637Z,33.33
2022-11-06T00:14:53.864Z,35.15
2022-11-06T00:16:55.992Z,33.65
2022-11-06T00:19:23.307Z,35.70
2022-11-06T00:21:27.639Z,36.75
2022-11-06T00:23:29.575Z,28.42
2022-11-06T00:25:31.564Z,28.75
2022-11-06T00:27:37.499Z,35.00
2022-11-06T00:29:39.524Z,31.95
2022-11-06T00:31:42.222Z,35.22
2022-11-06T00:33:44.814Z,30.45
2022-11-06T00:35:46.843Z,33.28
2022-11-06T00:37:48.880Z,28.40
2022-11-06T00:39:50.927Z,32.97
2022-11-06T00:41:52.844Z,29.38
2022-11-06T00:44:03.873Z,33.95
2022-11-06T00:46:08.239Z,31.33
2022-11-06T00:48:10.463Z,31.75
2022-11-06T00:50:12.647Z,30.98
2022-11-06T00:52:15.011Z,29.98
2022-11-06T00:54:16.954Z,31.17
2022-11-06T00:56:20.067Z,30.65
2022-11-06T00:58:22.183Z,31.33
2022-11-06T01:00:24.426Z,31.52
2022-11-06T01:02:26.713Z,27.98
2022-11-06T01:04:29.686Z,28.83
2022-11-06T01:06:34.894Z,29.02
2022-11-06T01:08:38.037Z,28.83
2022-11-06T01:10:40.017Z,30.45
2022-11-06T01:12:42.201Z,32.42
2022-11-06T01:14:44.869Z,29.73
2022-11-06T01:16:47.888Z,32.75
2022-11-06T01:18:50.169Z,31.67
2022-11-06T01:20:52.252Z,31.33
2022-11-06T01:22:54.355Z,28.48
2022-11-06T01:24:56.644Z,27.85
2022-11-06T01:27:25.518Z,27.27
2022-11-06T01:29:20.937Z,28.02
2022-11-06T01:31:27.398Z,29.27
2022-11-06T01:33:29.588Z,26.05
2022-11-06T01:35:31.687Z,26.35
2022-11-06T01:37:34.165Z,32.47
2022-11-06T01:39:36.166Z,29.42
2022-11-06T01:41:50.631Z,30.80
2022-11-06T01:44:02.750Z,31.33
2022-11-06T01:46:05.188Z,31.17
2022-11-06T01:48:07.314Z,35.03
2022-11-06T01:50:11.922Z,29.42
2022-11-06T01:52:15.423Z,38.40
2022-11-06T01:54:18.261Z,30.67
2022-11-06T01:56:22.309Z,31.50
2022-11-06T01:58:26.828Z,32.58
2022-11-06T02:00:31.243Z,33.10
2022-11-06T02:02:33.546Z,31.38
2022-11-06T02:04:43.115Z,34.00
2022-11-06T02:06:47.190Z,29.30
2022-11-06T02:08:49.416Z,36.67
2022-11-06T02:10:53.031Z,27.05
2022-11-06T02:13:03.772Z,30.85
2022-11-06T02:15:18.609Z,28.27
2022-11-06T02:17:45.272Z,33.92
2022-11-06T02:20:12.195Z,33.30
2022-11-06T02:23:10.092Z,34.75
2022-11-06T02:25:41.170Z,30.98
2022-11-06T02:28:11.304Z,38.85
2022-11-06T02:30:16.470Z,36.33
2022-11-06T02:32:35.899Z,37.90
2022-11-06T02:34:40.472Z,45.55
2022-11-06T02:37:05.193Z,38.42
2022-11-06T02:39:15.923Z,41.58
2022-11-06T02:41:25.258Z,40.30
2022-11-06T02:43:33.466Z,34.70
2022-11-06T02:46:04.322Z,41.10
2022-11-06T02:48:10.975Z,37.80
2022-11-06T02:50:25.854Z,36.38
2022-11-06T02:52:55.769Z,35.22
2022-11-06T02:55:07.783Z,31.92
2022-11-06T02:57:15.869Z,31.25
2022-11-06T02:59:17.819Z,30.30
2022-11-06T03:01:40.330Z,31.65
2022-11-06T03:03:48.434Z,31.85
2022-11-06T03:05:59.187Z,32.50
2022-11-06T03:08:42.141Z,30.75
2022-11-06T03:10:51.070Z,31.52
2022-11-06T03:13:10.535Z,34.97
2022-11-06T03:15:43.660Z,30.73
2022-11-06T03:18:02.237Z,33.97
2022-11-06T03:20:11.862Z,31.65
2022-11-06T03:22:38.494Z,31.85
2022-11-06T03:25:00.405Z,28.95
2022-11-06T03:27:12.495Z,30.35
2022-11-06T03:29:25.148Z,30.38
2022-11-06T03:31:44.025Z,32.22
2022-11-06T03:34:09.159Z,30.95
2022-11-06T03:36:40.008Z,27.25
2022-11-06T03:38:47.676Z,36.13
2022-11-06T03:40:59.786Z,31.00
2022-11-06T03:43:06.789Z,28.42
2022-11-06T03:45:15.280Z,30.83
2022-11-06T03:47:31.771Z,26.45
2022-11-06T03:49:40.879Z,26.42
2022-11-06T03:51:49.242Z,26.13
2022-11-06T03:53:59.815Z,25.33
2022-11-06T03:56:15.144Z,22.60
2022-11-06T03:58:21.643Z,23.10
2022-11-06T04:00:23.780Z,23.33
2022-11-06T04:02:30.115Z,31.80
2022-11-06T04:04:37.536Z,28.65
2022-11-06T04:07:08.280Z,34.55
2022-11-06T04:09:32.451Z,81.32
2022-11-06T04:11:55.867Z,30.88
2022-11-06T04:14:02.958Z,28.00
2022-11-06T04:16:06.946Z,27.92
2022-11-06T04:18:14.619Z,25.48
2022-11-06T04:20:39.934Z,29.50
2022-11-06T04:22:51.391Z,26.67
2022-11-06T04:25:24.167Z,27.63
2022-11-06T04:27:54.185Z,26.88
2022-11-06T04:30:02.035Z,26.50
2022-11-06T04:32:28.329Z,27.13
2022-11-06T04:34:56.777Z,23.73
2022-11-06T04:37:12.448Z,26.65
2022-11-06T04:39:34.713Z,26.67
2022-11-06T04:41:51.595Z,28.05
2022-11-06T04:43:58.941Z,23.20
2022-11-06T04:46:02.623Z,26.33
2022-11-06T04:48:06.538Z,29.48
2022-11-06T04:50:12.036Z,30.48
2022-11-06T04:52:20.047Z,33.50
2022-11-06T04:54:22.702Z,33.38
2022-11-06T04:56:34.681Z,31.15
2022-11-06T04:58:37.325Z,32.60
2022-11-06T05:00:45.116Z,29.63
2022-11-06T05:02:47.471Z,27.92
2022-11-06T05:04:49.819Z,27.58
2022-11-06T05:06:51.804Z,30.88
2022-11-06T05:08:53.760Z,26.13
2022-11-06T05:10:55.675Z,29.15
2022-11-06T05:12:57.783Z,30.75
2022-11-06T05:14:59.962Z,28.83
2022-11-06T05:17:02.108Z,28.90
2022-11-06T05:19:04.876Z,31.10
2022-11-06T05:21:27.319Z,27.63
2022-11-06T05:23:29.409Z,23.75
2022-11-06T05:25:34.709Z,28.10
2022-11-06T05:27:37.216Z,31.17
2022-11-06T05:29:39.403Z,27.65
2022-11-06T05:31:41.574Z,25.27
2022-11-06T05:33:46.673Z,25.27
2022-11-06T05:35:48.730Z,23.45
2022-11-06T05:37:51.098Z,23.70
2022-11-06T05:39:53.074Z,21.27
2022-11-06T05:41:54.984Z,21.77
2022-11-06T05:43:57.776Z,21.00
2022-11-06T05:46:00.686Z,20.88
2022-11-06T05:48:03.164Z,19.73
2022-11-06T05:50:05.554Z,19.92
2022-11-06T05:52:07.768Z,20.42
2022-11-06T05:54:09.915Z,18.05
2022-11-06T05:56:12.127Z,19.77
2022-11-06T05:58:15.437Z,26.55
2022-11-06T06:00:18.040Z,24.63
2022-11-06T06:02:20.247Z,33.75
2022-11-06T06:04:22.351Z,108.93
2022-11-06T06:06:24.509Z,88.25
2022-11-06T06:08:26.911Z,55.60
2022-11-06T06:10:29.036Z,108.15
2022-11-06T06:12:31.217Z,133.90
2022-11-06T06:14:33.239Z,292.85
2022-11-06T06:16:35.296Z,211.40
2022-11-06T06:18:37.872Z,110.38
2022-11-06T06:20:39.933Z,133.63
2022-11-06T06:22:41.998Z,93.85
2022-11-06T06:24:44.060Z,67.22
2022-11-06T06:26:46.346Z,66.28
2022-11-06T06:28:52.085Z,74.93
2022-11-06T06:30:58.689Z,68.65
2022-11-06T06:33:05.875Z,44.28
2022-11-06T06:35:08.223Z,56.80
2022-11-06T06:37:14.367Z,58.28
2022-11-06T06:39:21.842Z,50.72
2022-11-06T06:41:25.900Z,42.53
2022-11-06T06:43:28.255Z,54.22
2022-11-06T06:45:30.284Z,53.33
2022-11-06T06:47:32.392Z,35.13
2022-11-06T06:49:35.898Z,28.45
2022-11-06T06:51:38.169Z,28.95
2022-11-06T06:53:40.312Z,27.42
2022-11-06T06:55:45.089Z,28.85
2022-11-06T06:57:47.375Z,24.45
2022-11-06T06:59:49.227Z,26.33
2022-11-06T07:01:51.309Z,22.25
2022-11-06T07:03:53.404Z,27.67
2022-11-06T07:05:55.511Z,24.10
2022-11-06T07:07:57.838Z,28.10
2022-11-06T07:09:59.721Z,27.98
2022-11-06T07:12:01.938Z,27.83
2022-11-06T07:14:04.048Z,32.03
2022-11-06T07:16:07.910Z,28.33
2022-11-06T07:18:10.167Z,33.40
2022-11-06T07:20:12.377Z,32.92
2022-11-06T07:22:14.440Z,44.05
2022-11-06T07:24:18.278Z,63.78
2022-11-06T07:26:20.219Z,42.63
2022-11-06T07:28:22.258Z,32.83
2022-11-06T07:30:24.387Z,27.60
2022-11-06T07:32:26.959Z,25.77
2022-11-06T07:34:28.843Z,21.95
2022-11-06T07:36:32.924Z,22.83
2022-11-06T07:38:36.248Z,26.17
2022-11-06T07:40:40.781Z,23.92
2022-11-06T07:42:43.826Z,23.63
2022-11-06T07:44:54.494Z,23.00
2022-11-06T07:46:56.383Z,20.75
2022-11-06T07:48:58.548Z,26.48
2022-11-06T07:51:05.675Z,23.70
2022-11-06T07:53:08.111Z,23.58
2022-11-06T07:55:10.145Z,20.85
2022-11-06T07:57:12.201Z,22.85
2022-11-06T07:59:14.352Z,23.60
2022-11-06T08:01:20.791Z,24.35
2022-11-06T08:03:24.263Z,23.33
2022-11-06T08:05:26.474Z,28.92
2022-11-06T08:07:28.737Z,24.58
2022-11-06T08:09:31.076Z,33.53
2022-11-06T08:11:32.973Z,30.70
2022-11-06T08:13:35.679Z,27.95
2022-11-06T08:15:38.677Z,25.48
2022-11-06T08:17:40.938Z,27.75
2022-11-06T08:19:42.843Z,25.48
2022-11-06T08:21:44.937Z,25.30
2022-11-06T08:23:46.969Z,25.38
2022-11-06T08:25:49.377Z,24.35
2022-11-06T08:27:54.356Z,22.10
2022-11-06T08:29:56.480Z,26.33
2022-11-06T08:31:58.771Z,27.70
2022-11-06T08:34:00.778Z,21.00
2022-11-06T08:36:03.803Z,23.58
2022-11-06T08:38:05.865Z,23.33
2022-11-06T08:40:08.751Z,24.77
2022-11-06T08:42:10.846Z,24.15
2022-11-06T08:44:12.895Z,23.67
2022-11-06T08:46:15.425Z,24.55
2022-11-06T08:48:17.484Z,23.63
2022-11-06T08:50:19.549Z,25.05
2022-11-06T08:52:22.297Z,21.10
2022-11-06T08:54:24.426Z,22.45
2022-11-06T08:56:26.349Z,23.48
2022-11-06T08:58:28.959Z,23.55
2022-11-06T09:00:31.414Z,26.35
2022-11-06T09:02:33.745Z,28.80
2022-11-06T09:04:41.007Z,28.83
2022-11-06T09:06:43.476Z,23.92
2022-11-06T09:08:45.599Z,21.77
2022-11-06T09:10:47.752Z,25.77
2022-11-06T09:12:49.769Z,26.50
2022-11-06T09:14:51.975Z,22.88
2022-11-06T09:16:54.751Z,24.95
2022-11-06T09:18:57.132Z,24.90
2022-11-06T09:20:59.406Z,21.23
2022-11-06T09:23:03.522Z,28.60
2022-11-06T09:25:06.223Z,29.20
2022-11-06T09:27:08.515Z,30.67
2022-11-06T09:29:10.604Z,29.33
2022-11-06T09:31:12.716Z,29.27
2022-11-06T09:33:15.229Z,25.05
2022-11-06T09:35:18.351Z,23.52
2022-11-06T09:37:20.399Z,24.20
2022-11-06T09:39:22.299Z,27.40
2022-11-06T09:41:36.304Z,27.00
2022-11-06T09:44:05.078Z,25.73
2022-11-06T09:46:34.554Z,23.60
2022-11-06T09:48:43.949Z,24.42
2022-11-06T09:51:09.119Z,23.35
2022-11-06T09:53:20.508Z,24.17
2022-11-06T09:55:29.530Z,23.75
2022-11-06T09:57:44.055Z,25.35
2022-11-06T09:59:48.022Z,22.02
2022-11-06T10:02:40.682Z,24.63
2022-11-06T10:04:51.751Z,23.60
2022-11-06T10:06:53.807Z,23.05
2022-11-06T10:09:01.157Z,29.73
2022-11-06T10:11:14.388Z,26.70
2022-11-06T10:13:17.729Z,29.75
2022-11-06T10:15:28.574Z,26.30
2022-11-06T10:17:39.472Z,27.10
2022-11-06T10:19:52.497Z,26.35
2022-11-06T10:22:03.411Z,23.92
2022-11-06T10:24:46.664Z,25.63
2022-11-06T10:26:58.643Z,23.52
2022-11-06T10:29:12.993Z,24.08
2022-11-06T10:31:37.155Z,22.10
2022-11-06T10:34:10.402Z,20.48
2022-11-06T10:36:19.862Z,22.70
2022-11-06T10:38:26.390Z,22.48
2022-11-06T10:40:31.966Z,21.95
2022-11-06T10:42:40.604Z,21.90
2022-11-06T10:44:58.214Z,20.20
2022-11-06T10:47:06.798Z,22.13
2022-11-06T10:49:35.852Z,19.20
2022-11-06T10:51:49.453Z,18.83
2022-11-06T10:54:00.493Z,20.05
2022-11-06T10:56:21.291Z,20.05
2022-11-06T10:58:29.421Z,18.77
2022-11-06T11:00:32.551Z,19.15
2022-11-06T11:02:37.770Z,17.35
2022-11-06T11:04:41.148Z,17.15
2022-11-06T11:06:43.100Z,16.10
2022-11-06T11:08:52.147Z,18.58
2022-11-06T11:11:05.258Z,19.08
2022-11-06T11:13:21.147Z,18.70
2022-11-06T11:15:25.704Z,22.23
2022-11-06T11:17:27.690Z,66.28
2022-11-06T11:19:42.013Z,62.00
2022-11-06T11:22:19.386Z,54.83
2022-11-06T11:24:21.592Z,44.72
2022-11-06T11:26:27.804Z,44.80
2022-11-06T11:28:37.367Z,39.17
2022-11-06T11:30:39.806Z,29.75
2022-11-06T11:32:42.181Z,28.77
2022-11-06T11:34:53.886Z,33.78
2022-11-06T11:37:06.330Z,56.10
2022-11-06T11:39:09.135Z,47.85
2022-11-06T11:41:15.439Z,44.58
2022-11-06T11:43:30.205Z,49.53
2022-11-06T11:45:32.415Z,32.90
2022-11-06T11:47:36.038Z,33.90
2022-11-06T11:49:37.884Z,19.15
2022-11-06T11:51:47.490Z,17.38
2022-11-06T11:53:49.939Z,18.55
2022-11-06T11:55:54.821Z,15.07
2022-11-06T11:58:00.512Z,18.60
2022-11-06T12:00:06.471Z,16.48
2022-11-06T12:02:36.035Z,19.92
2022-11-06T12:04:45.104Z,16.77
2022-11-06T12:07:05.774Z,17.15
2022-11-06T12:09:12.323Z,30.48
2022-11-06T12:11:29.061Z,61.55
2022-11-06T12:13:31.199Z,68.40
2022-11-06T12:15:44.574Z,57.08
2022-11-06T12:17:55.217Z,43.30
2022-11-06T12:20:00.379Z,42.28
2022-11-06T12:22:10.978Z,43.60
2022-11-06T12:24:33.369Z,42.60
2022-11-06T12:26:46.664Z,36.28
2022-11-06T12:29:02.023Z,25.92
2022-11-06T12:31:23.169Z,26.65
2022-11-06T12:34:03.976Z,26.60
2022-11-06T12:35:54.913Z,26.90
2022-11-06T12:38:06.452Z,23.90
2022-11-06T12:40:22.187Z,25.10
2022-11-06T12:42:32.001Z,26.60
2022-11-06T12:44:34.065Z,21.90
2022-11-06T12:46:54.420Z,22.52
2022-11-06T12:49:14.310Z,21.75
2022-11-06T12:51:32.364Z,23.13
2022-11-06T12:54:06.625Z,21.88
2022-11-06T12:56:25.373Z,19.73
2022-11-06T12:58:44.543Z,21.80
2022-11-06T13:01:18.828Z,21.17
2022-11-06T13:03:27.099Z,23.38
2022-11-06T13:06:13.897Z,21.45
2022-11-06T13:08:25.134Z,21.73
2022-11-06T13:10:45.362Z,19.70
2022-11-06T13:13:15.290Z,16.52
2022-11-06T13:15:34.109Z,20.27
2022-11-06T13:17:52.132Z,18.33
2022-11-06T13:20:26.301Z,23.08
2022-11-06T13:22:50.237Z,44.47
2022-11-06T13:25:07.352Z,47.97
2022-11-06T13:27:42.780Z,42.60
2022-11-06T13:29:45.709Z,40.58
2022-11-06T13:31:59.100Z,36.78
2022-11-06T13:34:03.500Z,34.47
2022-11-06T13:36:07.414Z,33.78
2022-11-06T13:38:17.350Z,31.65
2022-11-06T13:40:31.421Z,34.85
2022-11-06T13:42:43.117Z,30.67
2022-11-06T13:44:45.306Z,31.10
2022-11-06T13:47:12.918Z,34.25
2022-11-06T13:49:28.551Z,32.83
2022-11-06T13:51:43.399Z,34.97
2022-11-06T13:54:16.201Z,31.38
2022-11-06T13:56:32.988Z,32.08
2022-11-06T13:58:58.001Z,28.27
2022-11-06T14:01:27.380Z,31.90
2022-11-06T14:03:41.377Z,26.30
2022-11-06T14:05:52.196Z,27.45
2022-11-06T14:07:55.343Z,25.60
2022-11-06T14:09:57.853Z,29.85
2022-11-06T14:12:03.606Z,26.13
2022-11-06T14:14:12.797Z,27.67
2022-11-06T14:16:14.637Z,26.65
2022-11-06T14:18:24.028Z,24.83
2022-11-06T14:20:35.610Z,24.25
2022-11-06T14:22:38.528Z,23.48
2022-11-06T14:24:42.704Z,22.75
2022-11-06T14:26:48.811Z,23.27
2022-11-06T14:28:51.203Z,19.63
2022-11-06T14:33:49.465Z,22.90
2022-11-06T14:35:52.550Z,27.17
2022-11-06T14:38:09.534Z,22.02
2022-11-06T14:40:14.795Z,30.95
2022-11-06T14:42:40.386Z,28.98
2022-11-06T14:45:08.981Z,28.75
2022-11-06T14:47:41.781Z,32.45
2022-11-06T14:49:49.573Z,95.43
2022-11-06T14:52:06.177Z,82.97
2022-11-06T14:54:21.462Z,57.75
2022-11-06T14:56:39.821Z,47.60
2022-11-06T14:58:50.662Z,30.98
2022-11-06T15:00:56.719Z,29.52
2022-11-06T15:02:59.440Z,29.08
2022-11-06T15:05:07.595Z,26.77
2022-11-06T15:07:44.695Z,27.23
2022-11-06T15:09:48.284Z,27.05
2022-11-06T15:11:55.958Z,30.85
2022-11-06T15:14:08.896Z,36.17
2022-11-06T15:16:12.770Z,33.55
2022-11-06T15:18:22.918Z,34.10
2022-11-06T15:20:30.954Z,36.60
2022-11-06T15:22:42.059Z,37.30
2022-11-06T15:25:01.532Z,35.67
2022-11-06T15:27:20.363Z,37.00
2022-11-06T15:29:25.986Z,35.08
2022-11-06T15:31:30.090Z,33.53
2022-11-06T15:33:44.340Z,35.45
2022-11-06T15:35:49.635Z,36.20
2022-11-06T15:38:03.452Z,37.65
2022-11-06T15:40:06.191Z,38.88
2022-11-06T15:42:20.399Z,37.17
2022-11-06T15:44:24.562Z,39.40
2022-11-06T15:46:30.194Z,38.03
2022-11-06T15:48:32.395Z,39.22
2022-11-06T15:50:36.734Z,42.75
2022-11-06T15:52:40.010Z,43.97
2022-11-06T15:54:43.858Z,44.08
2022-11-06T15:56:48.937Z,70.50
2022-11-06T15:59:17.319Z,67.95
2022-11-06T16:01:32.305Z,71.00
2022-11-06T16:03:50.826Z,67.00
2022-11-06T16:05:58.777Z,58.35
2022-11-06T16:08:01.970Z,60.38
2022-11-06T16:10:05.218Z,64.78
2022-11-06T16:12:07.784Z,65.60
2022-11-06T16:14:13.790Z,68.80
2022-11-06T16:16:41.852Z,66.97
2022-11-06T16:18:46.405Z,55.92
2022-11-06T16:20:58.386Z,56.92
2022-11-06T16:23:04.312Z,53.33
2022-11-06T16:25:07.797Z,51.35
2022-11-06T16:27:11.028Z,54.45
2022-11-06T16:29:23.897Z,50.72
2022-11-06T16:31:29.126Z,53.88
2022-11-06T16:33:31.204Z,54.08
2022-11-06T16:35:37.135Z,52.33
2022-11-06T16:37:39.868Z,54.95
2022-11-06T16:39:49.284Z,55.47
2022-11-06T16:41:57.953Z,55.25
2022-11-06T16:44:30.780Z,57.25
2022-11-06T16:47:05.027Z,49.42
2022-11-06T16:49:50.390Z,52.22
2022-11-06T16:51:55.614Z,59.83
2022-11-06T16:54:02.287Z,61.80
2022-11-06T16:56:07.168Z,56.97
2022-11-06T16:58:16.717Z,56.95
2022-11-06T17:00:22.004Z,59.58
2022-11-06T17:02:27.756Z,58.63
2022-11-06T17:04:30.060Z,59.75
2022-11-06T17:06:35.669Z,61.13
2022-11-06T17:08:40.674Z,64.90
2022-11-06T17:10:47.390Z,58.10
2022-11-06T17:12:49.380Z,59.72
2022-11-06T17:14:51.503Z,71.43
2022-11-06T17:16:56.423Z,60.45
2022-11-06T17:18:58.580Z,62.50
2022-11-06T17:21:02.485Z,58.88
2022-11-06T17:23:04.507Z,63.17
2022-11-06T17:25:06.868Z,60.50
2022-11-06T17:28:08.702Z,61.45
2022-11-06T17:30:15.004Z,60.53
2022-11-06T17:33:26.725Z,69.13
2022-11-06T17:35:34.485Z,79.22
2022-11-06T17:37:37.557Z,82.95
2022-11-06T17:39:39.664Z,93.32
2022-11-06T17:41:42.010Z,97.50
2022-11-06T17:43:44.084Z,123.88
2022-11-06T17:45:49.979Z,123.07
2022-11-06T17:47:55.501Z,133.55
2022-11-06T17:49:57.831Z,131.38
2022-11-06T17:52:02.937Z,125.60
2022-11-06T17:54:05.769Z,113.28
2022-11-06T17:56:08.045Z,106.68
2022-11-06T17:58:09.992Z,100.07
2022-11-06T18:00:13.059Z,94.55
2022-11-06T18:02:25.432Z,89.53
2022-11-06T18:04:38.059Z,82.93
2022-11-06T18:06:40.093Z,85.00
2022-11-06T18:08:42.969Z,96.53
2022-11-06T18:10:44.839Z,96.38
2022-11-06T18:12:51.378Z,103.07
2022-11-06T18:14:56.161Z,115.57
2022-11-06T18:16:58.237Z,120.18
2022-11-06T18:19:00.556Z,122.50
2022-11-06T18:21:03.927Z,115.57
2022-11-06T18:23:05.845Z,117.75
2022-11-06T18:25:08.370Z,194.88
2022-11-06T18:27:13.721Z,157.88
2022-11-06T18:29:15.947Z,130.50
2022-11-06T18:31:19.005Z,117.68
2022-11-06T18:33:21.094Z,112.40
2022-11-06T18:35:22.962Z,94.43
2022-11-06T18:37:26.081Z,89.10
2022-11-06T18:39:28.155Z,87.63
2022-11-06T18:41:30.266Z,78.45
2022-11-06T18:43:32.542Z,82.78
2022-11-06T18:45:38.014Z,75.25
2022-11-06T18:47:39.953Z,69.20
2022-11-06T18:49:41.963Z,67.35
2022-11-06T18:51:44.031Z,63.53
2022-11-06T18:53:46.016Z,59.22
2022-11-06T18:55:47.915Z,56.15
2022-11-06T18:57:49.730Z,56.13
2022-11-06T18:59:51.460Z,59.78
2022-11-06T19:01:53.613Z,61.58
2022-11-06T19:03:55.708Z,69.53
2022-11-06T19:05:57.413Z,66.20
2022-11-06T19:08:00.608Z,66.00
2022-11-06T19:10:03.132Z,61.88
2022-11-06T19:12:05.623Z,70.53
2022-11-06T19:14:07.603Z,66.00
2022-11-06T19:16:12.290Z,61.63
2022-11-06T19:18:14.666Z,65.70
2022-11-06T19:20:16.530Z,58.72
2022-11-06T19:22:18.311Z,60.58
2022-11-06T19:24:20.230Z,58.45
2022-11-06T19:26:37.324Z,54.55
2022-11-06T19:28:39.222Z,59.30
2022-11-06T19:30:41.054Z,58.53
2022-11-06T19:32:43.391Z,55.10
2022-11-06T19:34:45.452Z,50.75
2022-11-06T19:36:47.662Z,57.42
2022-11-06T19:38:49.623Z,61.92
2022-11-06T19:41:00.520Z,73.63
2022-11-06T19:43:04.018Z,114.00
2022-11-06T19:45:06.345Z,138.20
2022-11-06T19:47:08.295Z,120.50
2022-11-06T19:49:10.325Z,107.00
2022-11-06T19:51:15.833Z,94.63
2022-11-06T19:53:22.317Z,91.55
2022-11-06T19:55:27.005Z,87.28
2022-11-06T19:57:30.496Z,76.85
2022-11-06T19:59:32.794Z,77.13
2022-11-06T20:01:37.565Z,58.30
2022-11-06T20:03:39.874Z,49.90
2022-11-06T20:05:42.199Z,52.03
2022-11-06T20:07:44.490Z,58.38
2022-11-06T20:09:46.462Z,57.58
2022-11-06T20:11:48.589Z,54.28
2022-11-06T20:13:50.640Z,59.25
2022-11-06T20:15:57.689Z,54.95
2022-11-06T20:17:59.765Z,58.28
2022-11-06T20:20:01.788Z,51.00
2022-11-06T20:22:06.609Z,51.20
2022-11-06T20:24:10.192Z,48.40
2022-11-06T20:26:12.086Z,49.45
2022-11-06T20:28:14.219Z,42.40
2022-11-06T20:30:16.428Z,41.35
2022-11-06T20:32:19.350Z,50.50
2022-11-06T20:34:24.722Z,39.47
2022-11-06T20:36:30.620Z,42.70
2022-11-06T20:38:32.461Z,40.28
2022-11-06T20:40:34.777Z,39.88
2022-11-06T20:42:36.644Z,48.85
2022-11-06T20:44:38.727Z,46.35
2022-11-06T20:46:40.695Z,47.22
2022-11-06T20:48:44.999Z,48.58
2022-11-06T20:51:08.068Z,52.90
2022-11-06T20:53:10.110Z,51.28
2022-11-06T20:55:12.287Z,44.92
2022-11-06T20:57:16.788Z,53.38
2022-11-06T20:59:19.247Z,51.13
2022-11-06T21:01:27.756Z,51.17
2022-11-06T21:03:30.263Z,52.90
2022-11-06T21:05:35.688Z,55.08
2022-11-06T21:07:37.773Z,49.28
2022-11-06T21:09:43.826Z,45.05
2022-11-06T21:11:45.875Z,44.25
2022-11-06T21:13:52.235Z,36.80
2022-11-06T21:16:03.016Z,38.92
2022-11-06T21:18:05.095Z,39.58
2022-11-06T21:20:07.582Z,39.83
2022-11-06T21:22:09.798Z,45.22
2022-11-06T21:24:11.790Z,48.33
2022-11-06T21:26:22.159Z,50.17
2022-11-06T21:28:25.058Z,59.60
2022-11-06T21:30:27.296Z,54.60
2022-11-06T21:32:29.516Z,63.45
2022-11-06T21:34:31.709Z,64.03
2022-11-06T21:36:36.651Z,65.35
2022-11-06T21:38:39.185Z,62.30
2022-11-06T21:40:41.327Z,61.55
2022-11-06T21:42:44.670Z,58.00
2022-11-06T21:44:47.155Z,50.65
2022-11-06T21:46:49.250Z,63.63
2022-11-06T21:48:52.295Z,65.97
2022-11-06T21:50:54.832Z,54.90
2022-11-06T21:53:15.853Z,54.10
2022-11-06T21:55:36.633Z,66.65
2022-11-06T21:57:38.565Z,61.53
2022-11-06T21:59:41.688Z,67.93
2022-11-06T22:01:44.400Z,65.43
2022-11-06T22:03:46.907Z,57.25
2022-11-06T22:05:48.946Z,53.60
2022-11-06T22:07:51.017Z,62.33
2022-11-06T22:09:53.110Z,54.15
2022-11-06T22:11:55.649Z,53.72
2022-11-06T22:14:00.292Z,63.08
2022-11-06T22:16:02.482Z,63.80
2022-11-06T22:18:04.857Z,68.07
2022-11-06T22:20:09.218Z,66.95
2022-11-06T22:22:11.206Z,59.78
2022-11-06T22:24:14.888Z,61.25
2022-11-06T22:26:19.730Z,61.40
2022-11-06T22:28:22.024Z,75.70
2022-11-06T22:30:24.816Z,66.65
2022-11-06T22:32:27.226Z,65.80
2022-11-06T22:34:29.354Z,61.33
2022-11-06T22:36:31.622Z,64.30
2022-11-06T22:38:34.872Z,69.43
2022-11-06T22:40:37.061Z,59.85
2022-11-06T22:42:42.134Z,57.85
2022-11-06T22:44:46.863Z,57.35
2022-11-06T22:46:48.872Z,59.25
2022-11-06T22:48:51.978Z,61.67
2022-11-06T22:50:54.000Z,62.53
2022-11-06T22:52:56.020Z,65.65
2022-11-06T22:54:57.948Z,71.40
2022-11-06T22:56:59.909Z,68.03
2022-11-06T22:59:05.040Z,59.55
2022-11-06T23:01:08.628Z,59.72
2022-11-06T23:03:10.985Z,59.53
2022-11-06T23:05:13.323Z,59.67
2022-11-06T23:07:17.690Z,59.60
2022-11-06T23:09:19.586Z,53.67
2022-11-06T23:11:24.061Z,58.47
2022-11-06T23:13:26.071Z,57.75
2022-11-06T23:15:28.359Z,60.53
2022-11-06T23:17:39.185Z,62.80
2022-11-06T23:19:41.440Z,61.13
2022-11-06T23:21:43.864Z,64.25
2022-11-06T23:23:46.479Z,57.78
2022-11-06T23:25:51.677Z,58.83
2022-11-06T23:27:53.921Z,59.53
2022-11-06T23:30:00.801Z,57.60
2022-11-06T23:32:03.655Z,60.05
2022-11-06T23:34:05.971Z,51.83
2022-11-06T23:36:10.473Z,56.67
2022-11-06T23:38:12.604Z,48.58
2022-11-06T23:40:15.020Z,56.28
2022-11-06T23:42:18.711Z,104.57
2022-11-06T23:44:39.337Z,112.13
2022-11-06T23:46:41.540Z,90.60
2022-11-06T23:48:43.978Z,77.25
2022-11-06T23:50:47.272Z,59.17
2022-11-06T23:52:49.409Z,63.30
2022-11-06T23:54:51.539Z,61.72
2022-11-06T23:56:53.708Z,63.40
2022-11-06T23:58:56.155Z,65.60
